Ellis, Kansas
Current Conditions -  °F | °C
As of 6:35 AM on Thursday 18 Dec 2014 (Local Time) from KHYS Reporting Station
Overcast Overcast  
Wind Chill: 20°   Ceiling: 500
Heat Index: 27°   Visibility: 6mi
Dew Point: 18°   Wind: 6mph
Humidity: 69%   Direction: 50°NE
Pressure: 30.14"   Gusts: NA
Location:  38.94°N, 99.56°W
Report Text: KHYS 181235Z AUTO 05005KT 6SM OVC005 M03/M08 A3014 RMK AO1
Loading
Personal Weather Stations






























Interactive Weather Map New forecast layout! Learn more

10-Day Weather Forecast

Advertisements
Track Severe Weather on mobile